Portada
METAR-TAF:

METAR-TAF

Aeropuertos :

Kristianstad, Suecia

latitud: 55-55N, longitud: 014-05E, altitud: 23 m

Observación

El informe se hizo hace 28 minutos, a las 02:50 UTC
Viento 4 kt del oeste-suroeste
Temperatura 4°C
Humedad 100%
Presión 1011 hPa
Visibilidad 10 km o más

METAR: ESMK 080250Z AUTO 25004KT 9999 FEW061/// BKN074/// 04/04 Q1011

Hora: 05:18 (03:18 UTC)

Pronóstico

El informe se hizo hace 13 horas y 8 minutos, a las 14:10 UTC
Pronóstico válido del 07 a las 15 UTC al 07 a las 17 UTC
Viento 5 kt del sureste
Visibilidad 10 km o más
Cielo nuboso a una altura de 4000 ft
Temporalmente
del 07 a las 15 UTC al 07 a las 17 UTC
Cielo nuboso a una altura de 1200 ft
Nubes dispersas a una altura de 1500 ft, Cumulonimbus.
chaparrones de lluvia

TAF: ESMK 071410Z 0715/0717 13005KT 9999 BKN040 TEMPO 0715/0717 SHRA BKN012 SCT015CB

Observaciones y pronósticos meteorológicos de más de 4000 aeropuertos (mensajes METAR y TAF).

Los puntos amarillos y rojos representan las estaciones disponibles.

Ponga el ratón en el punto deseado para ver el nombre de la estación.

Haga clic para ver las observaciones y los pronósticos meteorológicos.

Para cambiar el mapa : haga clic en los botones verdes con una cruz de color negro para hacer un zoom, en el botón verde con un guión para alejar o en las flechas verdes para mapas adyacentes.


METAR-TAF: